createdAt,value
2022-10-20T00:01:15.468Z,21.35
2022-10-20T00:03:42.747Z,23.95
2022-10-20T00:06:14.549Z,21.70
2022-10-20T00:08:42.813Z,25.10
2022-10-20T00:11:11.014Z,21.90
2022-10-20T00:13:38.803Z,22.98
2022-10-20T00:16:05.965Z,24.63
2022-10-20T00:18:32.707Z,22.08
2022-10-20T00:20:59.566Z,21.52
2022-10-20T00:23:26.561Z,24.38
2022-10-20T00:26:03.413Z,26.23
2022-10-20T00:28:30.488Z,22.00
2022-10-20T00:30:57.614Z,21.45
2022-10-20T00:33:24.987Z,20.25
2022-10-20T00:35:52.163Z,22.85
2022-10-20T00:40:50.685Z,18.70
2022-10-20T00:43:17.824Z,22.75
2022-10-20T00:45:57.369Z,18.88
2022-10-20T00:48:29.834Z,18.70
2022-10-20T00:50:57.125Z,21.27
2022-10-20T00:53:28.061Z,20.23
2022-10-20T00:55:57.844Z,22.02
2022-10-20T00:58:25.723Z,18.17
2022-10-20T01:00:56.481Z,21.17
2022-10-20T01:03:39.615Z,16.73
2022-10-20T01:06:06.675Z,21.60
2022-10-20T01:08:33.611Z,21.73
2022-10-20T01:11:11.289Z,21.27
2022-10-20T01:14:08.483Z,17.20
2022-10-20T01:17:08.660Z,19.92
2022-10-20T01:19:48.070Z,23.73
2022-10-20T01:22:44.628Z,15.57
2022-10-20T01:25:19.020Z,19.30
2022-10-20T01:27:58.783Z,18.98
2022-10-20T01:30:25.691Z,20.15
2022-10-20T01:33:07.023Z,20.60
2022-10-20T01:35:45.908Z,18.83
2022-10-20T01:38:27.812Z,20.23
2022-10-20T01:41:01.940Z,22.23
2022-10-20T01:43:33.119Z,18.95
2022-10-20T01:46:01.360Z,14.80
2022-10-20T01:48:32.591Z,16.45
2022-10-20T01:51:01.588Z,18.55
2022-10-20T01:53:28.657Z,16.45
2022-10-20T01:55:57.554Z,17.58
2022-10-20T01:58:48.411Z,16.52
2022-10-20T02:01:28.049Z,17.02
2022-10-20T02:03:58.271Z,19.00
2022-10-20T02:06:58.087Z,15.65
2022-10-20T02:09:38.300Z,20.48
2022-10-20T02:12:09.717Z,18.15
2022-10-20T02:14:38.459Z,15.70
2022-10-20T02:17:10.773Z,15.55
2022-10-20T02:19:42.397Z,20.08
2022-10-20T02:24:38.921Z,18.60
2022-10-20T02:27:11.329Z,17.70
2022-10-20T02:29:55.508Z,15.60
2022-10-20T02:32:23.991Z,15.40
2022-10-20T02:34:50.775Z,19.80
2022-10-20T02:42:17.233Z,18.85
2022-10-20T02:44:44.102Z,14.90
2022-10-20T02:47:10.810Z,14.50
2022-10-20T02:49:37.520Z,17.23
2022-10-20T02:52:04.296Z,16.63
2022-10-20T02:54:30.973Z,13.52
2022-10-20T02:56:57.787Z,15.88
2022-10-20T02:59:24.561Z,13.85
2022-10-20T03:01:52.348Z,14.23
2022-10-20T03:04:19.211Z,17.77
2022-10-20T03:06:46.069Z,14.07
2022-10-20T03:09:13.113Z,11.15
2022-10-20T03:11:39.812Z,11.75
2022-10-20T03:14:06.541Z,14.80
2022-10-20T03:16:33.243Z,13.60
2022-10-20T03:19:03.456Z,12.80
2022-10-20T03:21:33.089Z,13.60
2022-10-20T03:23:59.845Z,12.63
2022-10-20T03:26:26.603Z,13.77
2022-10-20T03:28:53.333Z,13.38
2022-10-20T03:31:20.077Z,11.65
2022-10-20T03:33:46.744Z,11.75
2022-10-20T03:36:13.430Z,12.27
2022-10-20T03:38:43.273Z,16.00
2022-10-20T03:41:10.907Z,12.43
2022-10-20T03:43:40.062Z,12.20
2022-10-20T03:46:09.755Z,13.88
2022-10-20T03:48:37.439Z,11.23
2022-10-20T03:51:05.089Z,16.15
2022-10-20T03:53:32.489Z,11.98
2022-10-20T03:55:59.226Z,12.00
2022-10-20T03:58:25.965Z,11.68
2022-10-20T04:00:52.961Z,11.35
2022-10-20T04:03:19.659Z,14.27
2022-10-20T04:05:46.355Z,13.13
2022-10-20T04:10:39.882Z,8.88
2022-10-20T04:13:07.937Z,12.68
2022-10-20T04:15:35.923Z,14.00
2022-10-20T04:18:02.623Z,10.65
2022-10-20T04:20:29.361Z,12.50
2022-10-20T04:22:56.054Z,12.05
2022-10-20T04:25:22.743Z,13.05
2022-10-20T04:27:49.529Z,12.32
2022-10-20T04:30:16.339Z,11.38
2022-10-20T04:32:44.506Z,11.13
2022-10-20T04:35:11.295Z,10.57
2022-10-20T04:37:38.424Z,11.35
2022-10-20T04:40:05.788Z,11.73
2022-10-20T04:42:32.471Z,10.95
2022-10-20T04:44:59.145Z,12.43
2022-10-20T04:47:25.845Z,8.45
2022-10-20T04:49:52.528Z,9.82
2022-10-20T04:52:20.749Z,11.20
2022-10-20T04:54:47.581Z,8.65
2022-10-20T04:57:14.354Z,7.82
2022-10-20T04:59:41.105Z,8.82
2022-10-20T05:02:08.272Z,9.38
2022-10-20T05:04:35.026Z,10.18
2022-10-20T05:07:01.845Z,9.07
2022-10-20T05:09:29.075Z,8.25
2022-10-20T05:11:55.737Z,8.95
2022-10-20T05:14:22.558Z,8.27
2022-10-20T05:16:49.251Z,11.27
2022-10-20T05:19:16.162Z,8.93
2022-10-20T05:21:43.114Z,11.27
2022-10-20T05:24:19.787Z,11.43
2022-10-20T05:26:48.236Z,9.10
2022-10-20T05:29:16.161Z,12.63
2022-10-20T05:31:44.636Z,11.23
2022-10-20T05:34:14.393Z,11.48
2022-10-20T05:36:41.129Z,8.95
2022-10-20T05:39:07.866Z,9.30
2022-10-20T05:41:38.006Z,9.60
2022-10-20T05:44:08.876Z,11.65
2022-10-20T05:46:42.926Z,14.52
2022-10-20T05:49:15.460Z,10.93
2022-10-20T05:51:43.163Z,11.07
2022-10-20T05:54:12.715Z,10.65
2022-10-20T05:56:39.508Z,12.50
2022-10-20T05:59:06.233Z,10.68
2022-10-20T06:01:47.479Z,13.18
2022-10-20T06:04:28.099Z,11.93
2022-10-20T06:06:55.950Z,11.52
2022-10-20T06:09:24.325Z,11.05
2022-10-20T06:11:52.095Z,13.02
2022-10-20T06:14:19.260Z,10.15
2022-10-20T06:16:46.140Z,12.93
2022-10-20T06:19:12.857Z,12.63
2022-10-20T06:21:39.642Z,13.10
2022-10-20T06:24:07.393Z,14.77
2022-10-20T06:26:38.345Z,15.57
2022-10-20T06:29:07.806Z,18.20
2022-10-20T06:31:38.974Z,9.15
2022-10-20T06:34:08.150Z,10.90
2022-10-20T06:36:36.825Z,13.35
2022-10-20T06:39:05.942Z,11.60
2022-10-20T06:41:33.579Z,10.82
2022-10-20T06:44:00.547Z,7.45
2022-10-20T06:46:32.114Z,10.90
2022-10-20T06:51:30.642Z,11.45
2022-10-20T06:53:58.934Z,10.75
2022-10-20T06:56:28.906Z,14.05
2022-10-20T06:58:57.287Z,13.70
2022-10-20T07:01:32.697Z,11.38
2022-10-20T07:04:02.615Z,10.57
2022-10-20T07:06:35.058Z,11.73
2022-10-20T07:09:08.214Z,9.45
2022-10-20T07:11:35.558Z,9.85
2022-10-20T07:14:03.027Z,7.55
2022-10-20T07:16:32.245Z,11.05
2022-10-20T07:18:59.702Z,10.52
2022-10-20T07:21:32.393Z,10.77
2022-10-20T07:24:03.745Z,9.45
2022-10-20T07:26:33.766Z,13.10
2022-10-20T07:29:01.589Z,13.48
2022-10-20T07:31:46.285Z,11.48
2022-10-20T07:34:30.736Z,11.20
2022-10-20T07:36:58.171Z,13.30
2022-10-20T07:39:25.570Z,10.25
2022-10-20T07:41:52.607Z,9.98
2022-10-20T07:44:20.038Z,10.65
2022-10-20T07:46:46.849Z,12.85
2022-10-20T07:52:00.311Z,12.90
2022-10-20T07:54:27.042Z,9.68
2022-10-20T07:56:53.741Z,10.27
2022-10-20T07:59:20.573Z,8.95
2022-10-20T08:01:47.723Z,13.25
2022-10-20T08:04:14.488Z,9.55
2022-10-20T08:06:41.386Z,8.13
2022-10-20T08:09:08.468Z,7.47
2022-10-20T08:11:35.903Z,8.13
2022-10-20T08:14:02.850Z,7.43
2022-10-20T08:16:29.644Z,6.88
2022-10-20T08:19:11.805Z,6.45
2022-10-20T08:21:38.511Z,7.43
2022-10-20T08:24:05.519Z,6.32
2022-10-20T08:26:32.291Z,6.03
2022-10-20T08:28:59.098Z,6.05
2022-10-20T08:31:25.822Z,11.70
2022-10-20T08:33:53.328Z,5.13
2022-10-20T08:36:21.041Z,4.78
2022-10-20T08:38:48.389Z,5.75
2022-10-20T08:41:24.857Z,8.15
2022-10-20T08:43:54.833Z,7.32
2022-10-20T08:46:29.943Z,6.72
2022-10-20T08:48:57.268Z,6.75
2022-10-20T08:51:28.130Z,6.38
2022-10-20T08:53:58.522Z,4.97
2022-10-20T08:56:29.457Z,5.82
2022-10-20T08:58:56.812Z,5.10
2022-10-20T09:01:33.039Z,5.07
2022-10-20T09:04:32.576Z,3.95
2022-10-20T09:07:05.751Z,6.53
2022-10-20T09:09:33.669Z,5.53
2022-10-20T09:12:06.960Z,5.82
2022-10-20T09:14:37.133Z,4.90
2022-10-20T09:17:07.915Z,7.18
2022-10-20T09:19:36.409Z,5.80
2022-10-20T09:22:06.078Z,4.43
2022-10-20T09:24:35.709Z,7.90
2022-10-20T09:27:34.429Z,8.13
2022-10-20T09:30:25.908Z,5.43
2022-10-20T09:32:52.850Z,5.20
2022-10-20T09:35:19.647Z,7.10
2022-10-20T09:37:53.271Z,7.45
2022-10-20T09:40:20.396Z,5.18
2022-10-20T09:42:54.481Z,7.65
2022-10-20T09:45:28.763Z,5.20
2022-10-20T09:48:32.609Z,8.65
2022-10-20T09:51:00.223Z,4.65
2022-10-20T09:53:34.285Z,4.80
2022-10-20T09:56:01.625Z,6.82
2022-10-20T09:58:33.646Z,7.22
2022-10-20T10:01:11.861Z,6.95
2022-10-20T10:03:51.593Z,8.95
2022-10-20T10:06:33.003Z,4.72
2022-10-20T10:09:01.747Z,5.60
2022-10-20T10:11:36.775Z,6.43
2022-10-20T10:14:04.021Z,5.00
2022-10-20T10:16:41.659Z,6.25
2022-10-20T10:19:17.312Z,4.53
2022-10-20T10:21:47.257Z,5.78
2022-10-20T10:24:46.416Z,5.63
2022-10-20T10:27:23.823Z,7.55
2022-10-20T10:29:50.788Z,7.85
2022-10-20T10:32:28.602Z,5.10
2022-10-20T10:35:19.924Z,6.30
2022-10-20T10:37:47.582Z,8.75
2022-10-20T10:40:18.196Z,5.88
2022-10-20T10:42:51.465Z,8.33
2022-10-20T10:45:29.913Z,10.35
2022-10-20T10:48:14.736Z,6.60
2022-10-20T10:50:53.999Z,5.40
2022-10-20T10:53:26.953Z,11.52
2022-10-20T10:58:57.039Z,9.80
2022-10-20T11:01:58.863Z,9.00
2022-10-20T11:07:24.198Z,5.90
2022-10-20T11:10:18.145Z,6.40
2022-10-20T11:12:44.798Z,5.43
2022-10-20T11:15:35.534Z,7.10
2022-10-20T11:18:24.103Z,8.20
2022-10-20T11:21:28.103Z,6.57
2022-10-20T11:24:12.653Z,5.05
2022-10-20T11:26:43.078Z,6.28
2022-10-20T11:29:33.561Z,7.25
2022-10-20T11:32:09.794Z,9.77
2022-10-20T11:34:52.099Z,9.13
2022-10-20T11:37:26.042Z,8.10
2022-10-20T11:40:18.406Z,10.60
2022-10-20T11:42:58.035Z,12.90
2022-10-20T11:45:24.730Z,13.63
2022-10-20T11:48:02.823Z,11.85
2022-10-20T11:50:30.635Z,12.88
2022-10-20T11:53:23.397Z,8.73
2022-10-20T11:56:09.079Z,10.55
2022-10-20T11:58:52.310Z,10.65
2022-10-20T12:01:36.424Z,6.90
2022-10-20T12:04:24.995Z,8.27
2022-10-20T12:07:09.683Z,14.27
2022-10-20T12:10:27.837Z,8.07
2022-10-20T12:13:15.553Z,11.15
2022-10-20T12:15:49.907Z,11.18
2022-10-20T12:18:32.033Z,13.85
2022-10-20T12:21:10.507Z,9.35
2022-10-20T12:23:45.024Z,12.40
2022-10-20T12:26:30.173Z,8.80
2022-10-20T12:28:58.069Z,9.45
2022-10-20T12:31:25.752Z,9.18
2022-10-20T12:33:55.165Z,9.48
2022-10-20T12:36:39.363Z,11.73
2022-10-20T12:39:21.836Z,7.25
2022-10-20T12:41:58.446Z,6.72
2022-10-20T12:44:29.009Z,9.80
2022-10-20T12:47:06.252Z,7.00
2022-10-20T12:49:36.483Z,8.20
2022-10-20T12:52:07.337Z,7.72
2022-10-20T12:54:39.582Z,7.95
2022-10-20T12:57:31.142Z,6.15
2022-10-20T13:02:24.667Z,5.70
2022-10-20T13:05:06.679Z,7.65
2022-10-20T13:07:48.478Z,9.63
2022-10-20T13:10:27.581Z,6.25
2022-10-20T13:13:03.837Z,4.97
2022-10-20T13:15:37.034Z,7.22
2022-10-20T13:18:21.364Z,8.35
2022-10-20T13:21:00.106Z,7.05
2022-10-20T13:23:34.298Z,20.23
2022-10-20T13:26:26.574Z,7.13
2022-10-20T13:29:10.713Z,4.57
2022-10-20T13:31:52.997Z,8.90
2022-10-20T13:34:39.318Z,5.90
2022-10-20T13:37:06.097Z,7.53
2022-10-20T13:39:49.936Z,9.38
2022-10-20T13:42:17.007Z,11.82
2022-10-20T13:45:23.377Z,5.97
2022-10-20T13:48:01.021Z,9.35
2022-10-20T13:50:34.434Z,7.85
2022-10-20T13:53:13.908Z,8.10
2022-10-20T13:56:10.760Z,9.23
2022-10-20T13:58:37.522Z,8.98
2022-10-20T14:01:16.984Z,8.48
2022-10-20T14:03:45.871Z,6.88
2022-10-20T14:06:31.435Z,6.68
2022-10-20T14:09:08.503Z,9.50
2022-10-20T14:11:35.279Z,9.45
2022-10-20T14:14:02.635Z,8.13
2022-10-20T14:16:31.557Z,9.38
2022-10-20T14:19:13.060Z,6.45
2022-10-20T14:21:50.748Z,6.43
2022-10-20T14:24:32.745Z,7.40
2022-10-20T14:27:01.845Z,11.73
2022-10-20T14:29:32.394Z,7.78
2022-10-20T14:32:00.078Z,10.88
2022-10-20T14:34:34.042Z,8.43
2022-10-20T14:37:01.304Z,9.20
2022-10-20T14:39:38.039Z,7.38
2022-10-20T14:42:20.385Z,11.95
2022-10-20T14:44:49.323Z,9.80
2022-10-20T14:47:17.483Z,8.02
2022-10-20T14:49:52.343Z,13.23
2022-10-20T14:52:21.691Z,11.48
2022-10-20T14:54:52.810Z,12.60
2022-10-20T14:57:19.596Z,12.40
2022-10-20T15:00:04.250Z,12.82
2022-10-20T15:02:42.642Z,12.35
2022-10-20T15:05:32.597Z,12.65
2022-10-20T15:08:18.960Z,14.00
2022-10-20T15:10:46.059Z,13.43
2022-10-20T15:13:27.736Z,11.10
2022-10-20T15:15:56.435Z,13.15
2022-10-20T15:18:24.789Z,13.18
2022-10-20T15:20:53.254Z,12.55
2022-10-20T15:23:22.750Z,13.20
2022-10-20T15:26:03.100Z,9.13
2022-10-20T15:28:46.266Z,9.75
2022-10-20T15:31:12.918Z,7.50
2022-10-20T15:33:42.857Z,12.82
2022-10-20T15:36:11.424Z,12.52
2022-10-20T15:38:38.149Z,8.23
2022-10-20T15:41:05.001Z,9.27
2022-10-20T15:43:32.313Z,27.10
2022-10-20T15:45:59.123Z,12.30
2022-10-20T15:48:26.242Z,9.48
2022-10-20T15:50:54.184Z,9.98
2022-10-20T15:53:21.089Z,9.10
2022-10-20T15:55:48.060Z,17.77
2022-10-20T15:58:14.887Z,12.75
2022-10-20T16:00:41.715Z,9.52
2022-10-20T16:03:17.120Z,11.68
2022-10-20T16:05:44.463Z,14.80
2022-10-20T16:08:11.242Z,13.38
2022-10-20T16:10:39.000Z,12.00
2022-10-20T16:13:06.150Z,14.30
2022-10-20T16:15:32.925Z,25.95
2022-10-20T16:17:59.684Z,17.05
2022-10-20T16:20:26.531Z,11.15
2022-10-20T16:22:53.323Z,14.27
2022-10-20T16:25:20.074Z,18.05
2022-10-20T16:27:46.816Z,13.25
2022-10-20T16:30:13.706Z,13.73
2022-10-20T16:32:40.768Z,11.43
2022-10-20T16:35:07.963Z,10.07
2022-10-20T16:37:34.900Z,19.35
2022-10-20T16:40:02.182Z,9.90
2022-10-20T16:42:30.284Z,13.38
2022-10-20T16:44:57.436Z,15.70
2022-10-20T16:47:25.821Z,12.52
2022-10-20T16:49:52.634Z,15.10
2022-10-20T16:52:19.804Z,25.80
2022-10-20T16:54:46.547Z,18.98
2022-10-20T16:57:13.891Z,14.43
2022-10-20T16:59:42.467Z,22.45
2022-10-20T17:02:11.518Z,16.00
2022-10-20T17:04:38.277Z,16.65
2022-10-20T17:07:05.903Z,10.30
2022-10-20T17:09:32.648Z,11.07
2022-10-20T17:11:59.833Z,14.43
2022-10-20T17:14:26.514Z,17.38
2022-10-20T17:16:53.246Z,13.82
2022-10-20T17:19:19.986Z,13.35
2022-10-20T17:21:46.764Z,11.85
2022-10-20T17:24:14.317Z,11.50
2022-10-20T17:26:41.974Z,11.13
2022-10-20T17:29:09.660Z,14.18
2022-10-20T17:31:37.726Z,16.33
2022-10-20T17:34:05.106Z,12.73
2022-10-20T17:36:32.526Z,21.05
2022-10-20T17:39:02.662Z,28.05
2022-10-20T17:41:30.032Z,18.42
2022-10-20T17:43:59.833Z,18.88
2022-10-20T17:46:26.880Z,22.73
2022-10-20T17:48:54.082Z,14.70
2022-10-20T17:51:27.771Z,18.85
2022-10-20T17:53:58.044Z,13.65
2022-10-20T17:56:31.282Z,14.10
2022-10-20T17:58:59.798Z,16.63
2022-10-20T18:01:30.515Z,16.10
2022-10-20T18:04:00.276Z,12.30
2022-10-20T18:06:33.527Z,14.73
2022-10-20T18:09:06.400Z,12.38
2022-10-20T18:11:34.674Z,24.60
2022-10-20T18:14:01.717Z,39.67
2022-10-20T18:16:31.658Z,33.75
2022-10-20T18:18:59.374Z,23.38
2022-10-20T18:21:27.823Z,16.13
2022-10-20T18:24:02.089Z,17.67
2022-10-20T18:26:30.166Z,17.17
2022-10-20T18:28:59.316Z,13.15
2022-10-20T18:31:28.944Z,15.95
2022-10-20T18:34:02.667Z,14.85
2022-10-20T18:36:33.420Z,19.48
2022-10-20T18:39:00.892Z,17.17
2022-10-20T18:41:30.442Z,20.00
2022-10-20T18:44:01.486Z,17.95
2022-10-20T18:46:31.209Z,17.33
2022-10-20T18:48:59.025Z,19.30
2022-10-20T18:51:26.687Z,18.30
2022-10-20T18:53:55.629Z,14.25
2022-10-20T18:56:24.177Z,18.00
2022-10-20T18:58:53.163Z,18.35
2022-10-20T19:01:22.774Z,14.75
2022-10-20T19:03:52.687Z,17.60
2022-10-20T19:06:21.942Z,18.17
2022-10-20T19:08:53.293Z,16.38
2022-10-20T19:11:22.283Z,14.25
2022-10-20T19:13:49.893Z,17.88
2022-10-20T19:16:20.031Z,16.05
2022-10-20T19:18:48.791Z,17.10
2022-10-20T19:21:16.106Z,20.23
2022-10-20T19:23:46.906Z,15.07
2022-10-20T19:26:36.150Z,18.10
2022-10-20T19:29:10.498Z,17.17
2022-10-20T19:31:43.856Z,11.07
2022-10-20T19:34:20.916Z,14.75
2022-10-20T19:36:48.307Z,18.50
2022-10-20T19:39:19.090Z,15.85
2022-10-20T19:41:46.442Z,14.48
2022-10-20T19:44:15.416Z,13.10
2022-10-20T19:46:46.700Z,14.55
2022-10-20T19:49:14.347Z,15.40
2022-10-20T19:51:42.087Z,23.75
2022-10-20T19:54:09.609Z,16.00
2022-10-20T19:56:36.852Z,16.48
2022-10-20T19:59:04.979Z,14.65
2022-10-20T20:01:32.654Z,17.45
2022-10-20T20:03:59.873Z,21.85
2022-10-20T20:06:28.443Z,14.75
2022-10-20T20:08:59.332Z,18.08
2022-10-20T20:11:30.732Z,16.65
2022-10-20T20:14:04.540Z,16.98
2022-10-20T20:16:31.605Z,14.27
2022-10-20T20:18:58.644Z,15.02
2022-10-20T20:21:26.685Z,10.63
2022-10-20T20:23:59.332Z,13.02
2022-10-20T20:26:28.389Z,12.80
2022-10-20T20:28:56.103Z,16.25
2022-10-20T20:31:23.841Z,9.95
2022-10-20T20:33:50.889Z,13.68
2022-10-20T20:36:17.635Z,13.95
2022-10-20T20:38:44.800Z,13.63
2022-10-20T20:41:14.281Z,10.48
2022-10-20T20:43:41.475Z,12.77
2022-10-20T20:46:12.140Z,13.52
2022-10-20T20:48:39.218Z,11.40
2022-10-20T20:51:06.522Z,15.18
2022-10-20T20:53:38.071Z,13.90
2022-10-20T20:58:33.369Z,13.38
2022-10-20T21:01:07.833Z,10.07
2022-10-20T21:03:35.707Z,13.85
2022-10-20T21:06:07.656Z,15.48
2022-10-20T21:08:36.023Z,12.32
2022-10-20T21:11:06.770Z,17.92
2022-10-20T21:13:34.173Z,11.20
2022-10-20T21:16:14.054Z,11.50
2022-10-20T21:18:43.069Z,18.83
2022-10-20T21:21:12.730Z,13.05
2022-10-20T21:23:40.492Z,15.45
2022-10-20T21:26:08.478Z,20.55
2022-10-20T21:28:35.589Z,9.82
2022-10-20T21:31:07.106Z,15.75
2022-10-20T21:36:06.195Z,15.07
2022-10-20T21:38:35.583Z,12.55
2022-10-20T21:41:13.041Z,10.40
2022-10-20T21:43:43.970Z,19.00
2022-10-20T21:46:15.131Z,8.02
2022-10-20T21:48:43.438Z,12.68
2022-10-20T21:51:14.432Z,13.02
2022-10-20T21:53:41.139Z,9.07
2022-10-20T21:56:08.771Z,15.60
2022-10-20T21:58:36.352Z,10.15
2022-10-20T22:01:13.602Z,11.15
2022-10-20T22:03:41.075Z,11.00
2022-10-20T22:06:09.781Z,10.27
2022-10-20T22:08:41.925Z,12.68
2022-10-20T22:11:15.737Z,14.90
2022-10-20T22:13:43.005Z,12.13
2022-10-20T22:16:13.509Z,15.48
2022-10-20T22:18:40.220Z,15.00
2022-10-20T22:21:13.520Z,9.80
2022-10-20T22:23:41.263Z,11.93
2022-10-20T22:26:08.387Z,14.48
2022-10-20T22:28:35.321Z,8.07
2022-10-20T22:31:02.302Z,12.50
2022-10-20T22:33:29.164Z,7.88
2022-10-20T22:35:55.950Z,12.73
2022-10-20T22:38:22.711Z,11.93
2022-10-20T22:40:49.574Z,10.60
2022-10-20T22:43:16.323Z,16.60
2022-10-20T22:45:43.228Z,10.77
2022-10-20T22:48:09.923Z,14.10
2022-10-20T22:50:36.658Z,8.85
2022-10-20T22:53:03.516Z,13.68
2022-10-20T22:55:30.238Z,14.88
2022-10-20T23:00:28.658Z,9.00
2022-10-20T23:02:55.681Z,12.32
2022-10-20T23:05:22.553Z,7.53
2022-10-20T23:07:49.266Z,8.98
2022-10-20T23:10:16.199Z,7.63
2022-10-20T23:12:43.240Z,12.10
2022-10-20T23:15:10.391Z,14.30
2022-10-20T23:17:37.908Z,9.55
2022-10-20T23:20:05.628Z,8.32
2022-10-20T23:22:32.398Z,7.80
2022-10-20T23:24:59.058Z,7.75
2022-10-20T23:27:25.739Z,8.50
2022-10-20T23:29:52.476Z,8.25
2022-10-20T23:32:19.191Z,13.20
2022-10-20T23:34:45.905Z,7.32
2022-10-20T23:37:12.713Z,15.93
2022-10-20T23:39:39.383Z,13.23
2022-10-20T23:42:07.330Z,6.03
2022-10-20T23:44:34.462Z,7.53
2022-10-20T23:47:01.208Z,9.68
2022-10-20T23:49:27.914Z,12.63
2022-10-20T23:51:54.662Z,10.80
2022-10-20T23:54:21.542Z,8.70
2022-10-20T23:56:48.315Z,11.57
2022-10-20T23:59:15.070Z,12.25
